Time;durP1;ratioP1;P1;durP2;ratioP2;P2;SDS_P1;SDS_P2;PMS_P1;PMS_P2;Temp;Humidity;BMP_temperature;BMP_pressure;BME280_temperature;BME280_humidity;BME280_pressure;Samples;Min_cycle;Max_cycle;Signal;HPM_P1;HPM_P2
2022/02/26 00:01:32;;;;;;;5.88;3.17;;;;;;;;;;4961384;28;20035;-83
2022/02/26 00:03:57;;;;;;;6.97;3.88;;;;;;;;;;4973295;28;20100;-84
2022/02/26 00:06:23;;;;;;;5.05;3.33;;;;;;;;;;4957429;28;20409;-83
2022/02/26 00:08:48;;;;;;;7.30;3.80;;;;;;;;;;4973775;28;20039;-83
2022/02/26 00:11:14;;;;;;;6.68;3.47;;;;;;;;;;4973634;28;20058;-82
2022/02/26 00:13:39;;;;;;;7.70;3.72;;;;;;;;;;4991072;28;20069;-83
2022/02/26 00:16:05;;;;;;;5.78;3.13;;;;;;;;;;4976441;28;20113;-83
2022/02/26 00:18:30;;;;;;;5.90;3.75;;;;;;;;;;4944374;28;20451;-83
2022/02/26 00:20:56;;;;;;;5.85;3.38;;;;;;;;;;4960514;28;20039;-83
2022/02/26 00:23:21;;;;;;;7.40;4.45;;;;;;;;;;4959729;28;20057;-83
2022/02/26 00:25:47;;;;;;;6.22;3.25;;;;;;;;;;4976994;28;20085;-83
2022/02/26 00:28:12;;;;;;;9.68;3.65;;;;;;;;;;4972479;28;20047;-83
2022/02/26 00:30:38;;;;;;;8.90;5.07;;;;;;;;;;4989141;28;20043;-83
2022/02/26 00:33:04;;;;;;;5.72;3.88;;;;;;;;;;4972832;28;20034;-82
2022/02/26 00:35:30;;;;;;;6.40;3.72;;;;;;;;;;4972611;28;20038;-83
2022/02/26 00:37:55;;;;;;;8.13;3.45;;;;;;;;;;4972529;28;20077;-83
2022/02/26 00:40:21;;;;;;;7.97;3.70;;;;;;;;;;4989242;28;20034;-83
2022/02/26 00:42:47;;;;;;;6.75;4.55;;;;;;;;;;4956489;28;20039;-83
2022/02/26 00:45:13;;;;;;;7.60;3.78;;;;;;;;;;4991637;28;20421;-83
2022/02/26 00:47:38;;;;;;;8.00;3.58;;;;;;;;;;4992315;28;20053;-83
2022/02/26 00:50:04;;;;;;;7.85;3.58;;;;;;;;;;4959768;28;20112;-83
2022/02/26 00:52:31;;;;;;;7.30;3.60;;;;;;;;;;4972016;28;20050;-83
2022/02/26 00:54:57;;;;;;;6.82;3.30;;;;;;;;;;4955875;28;20142;-83
2022/02/26 00:57:24;;;;;;;6.47;3.35;;;;;;;;;;4956816;28;20117;-82
2022/02/26 00:59:51;;;;;;;8.93;3.90;;;;;;;;;;4985328;28;20509;-82
2022/02/26 01:02:19;;;;;;;6.28;3.30;;;;;;;;;;4978120;28;20035;-83
2022/02/26 01:04:45;;;;;;;7.78;3.30;;;;;;;;;;4972100;28;20026;-83
2022/02/26 01:07:11;;;;;;;7.10;3.47;;;;;;;;;;4956187;28;20061;-83
2022/02/26 01:09:37;;;;;;;6.63;2.90;;;;;;;;;;4972288;28;20501;-83
2022/02/26 01:12:03;;;;;;;7.88;4.10;;;;;;;;;;4988786;28;20113;-82
2022/02/26 01:14:29;;;;;;;6.38;3.72;;;;;;;;;;4988060;28;20043;-83
2022/02/26 01:16:54;;;;;;;7.53;3.30;;;;;;;;;;4953227;28;20038;-84
2022/02/26 01:19:20;;;;;;;7.20;3.28;;;;;;;;;;4956031;28;20062;-83
2022/02/26 01:21:45;;;;;;;9.13;3.97;;;;;;;;;;4955745;28;20112;-83
2022/02/26 01:24:11;;;;;;;7.50;4.03;;;;;;;;;;4956149;28;20031;-83
2022/02/26 01:26:37;;;;;;;8.25;3.88;;;;;;;;;;4956402;28;20053;-83
2022/02/26 01:29:03;;;;;;;7.03;3.95;;;;;;;;;;4940062;28;20464;-83
2022/02/26 01:31:29;;;;;;;7.55;3.28;;;;;;;;;;4960418;28;20058;-83
2022/02/26 01:33:55;;;;;;;8.10;3.53;;;;;;;;;;4971644;28;20034;-83
2022/02/26 01:36:21;;;;;;;6.15;3.08;;;;;;;;;;4939636;28;20468;-83
2022/02/26 01:38:46;;;;;;;8.32;3.47;;;;;;;;;;4939816;28;20035;-83
2022/02/26 01:41:12;;;;;;;9.45;4.65;;;;;;;;;;4955926;28;20039;-83
2022/02/26 01:43:37;;;;;;;7.53;4.15;;;;;;;;;;4988102;28;20030;-83
2022/02/26 01:46:04;;;;;;;5.78;3.28;;;;;;;;;;4971386;28;20081;-83
2022/02/26 01:48:32;;;;;;;6.15;3.53;;;;;;;;;;4971867;28;20475;-83
2022/02/26 01:50:58;;;;;;;8.23;3.90;;;;;;;;;;4958790;28;20218;-84
2022/02/26 01:53:23;;;;;;;7.10;4.20;;;;;;;;;;4971737;28;20095;-83
2022/02/26 01:55:49;;;;;;;10.45;3.83;;;;;;;;;;4972017;28;20101;-83
2022/02/26 01:58:15;;;;;;;6.95;3.78;;;;;;;;;;4974138;28;20497;-83
2022/02/26 02:00:41;;;;;;;7.25;3.95;;;;;;;;;;4974880;28;20492;-83
2022/02/26 02:03:06;;;;;;;7.78;3.50;;;;;;;;;;4974531;28;20061;-84
2022/02/26 02:05:31;;;;;;;6.10;3.63;;;;;;;;;;4974366;28;20038;-83
2022/02/26 02:07:58;;;;;;;8.02;3.80;;;;;;;;;;4956658;28;20098;-83
2022/02/26 02:10:24;;;;;;;6.95;3.45;;;;;;;;;;4939662;28;20557;-83
2022/02/26 02:12:49;;;;;;;8.40;3.88;;;;;;;;;;4986872;28;20171;-83
2022/02/26 02:15:24;;;;;;;7.00;4.10;;;;;;;;;;4958420;28;20050;-84
2022/02/26 02:17:51;;;;;;;5.93;3.60;;;;;;;;;;4959052;28;20042;-82
2022/02/26 02:20:16;;;;;;;8.45;4.10;;;;;;;;;;4974404;28;20046;-83
2022/02/26 02:22:42;;;;;;;5.70;3.70;;;;;;;;;;4957644;28;20085;-83
2022/02/26 02:25:08;;;;;;;9.15;3.83;;;;;;;;;;4985387;28;20050;-83
2022/02/26 02:27:33;;;;;;;11.35;4.35;;;;;;;;;;4955443;28;20041;-83
2022/02/26 02:29:59;;;;;;;8.65;3.67;;;;;;;;;;4954981;28;20039;-83
2022/02/26 02:32:24;;;;;;;6.90;4.50;;;;;;;;;;4954910;28;20041;-83
2022/02/26 02:34:50;;;;;;;6.05;3.60;;;;;;;;;;4954978;28;20089;-83
2022/02/26 02:37:15;;;;;;;7.22;3.35;;;;;;;;;;4955278;28;20061;-83
2022/02/26 02:39:41;;;;;;;7.25;3.20;;;;;;;;;;4983035;28;20413;-83
2022/02/26 02:42:07;;;;;;;7.40;3.70;;;;;;;;;;4987405;28;20038;-83
2022/02/26 02:44:32;;;;;;;6.30;3.53;;;;;;;;;;4982409;28;20053;-83
2022/02/26 02:46:58;;;;;;;7.28;3.40;;;;;;;;;;4971167;28;20038;-83
2022/02/26 02:49:23;;;;;;;7.53;3.78;;;;;;;;;;4939078;28;20042;-82
2022/02/26 02:51:49;;;;;;;7.40;3.70;;;;;;;;;;4971109;28;20433;-83
2022/02/26 02:54:14;;;;;;;8.60;3.92;;;;;;;;;;4955053;28;20039;-82
2022/02/26 02:56:40;;;;;;;9.00;3.63;;;;;;;;;;4955141;28;20057;-83
2022/02/26 02:59:05;;;;;;;8.25;3.92;;;;;;;;;;4964029;28;20038;-83
2022/02/26 03:01:31;;;;;;;7.05;4.30;;;;;;;;;;4990194;28;20031;-83
2022/02/26 03:03:56;;;;;;;8.90;4.10;;;;;;;;;;4973960;28;20480;-83
2022/02/26 03:06:25;;;;;;;9.00;3.95;;;;;;;;;;4990252;28;20038;-83
2022/02/26 03:08:51;;;;;;;5.90;3.70;;;;;;;;;;4974335;28;20038;-83
2022/02/26 03:11:17;;;;;;;7.93;4.38;;;;;;;;;;4990467;28;20042;-83
2022/02/26 03:13:45;;;;;;;8.55;4.10;;;;;;;;;;4989995;28;20038;-82
2022/02/26 03:16:10;;;;;;;8.25;3.72;;;;;;;;;;4989829;28;20045;-83
2022/02/26 03:18:36;;;;;;;5.93;4.00;;;;;;;;;;4940737;28;20042;-82
2022/02/26 03:21:01;;;;;;;7.68;4.05;;;;;;;;;;4958513;28;20035;-83
2022/02/26 03:23:27;;;;;;;7.75;3.85;;;;;;;;;;4958442;28;20371;-82
2022/02/26 03:25:52;;;;;;;8.57;4.35;;;;;;;;;;4977499;28;20088;-82
2022/02/26 03:28:18;;;;;;;7.78;4.07;;;;;;;;;;4961060;28;20416;-82
2022/02/26 03:30:43;;;;;;;7.85;4.10;;;;;;;;;;4976906;28;20061;-82
2022/02/26 03:33:09;;;;;;;6.15;3.50;;;;;;;;;;4973945;28;20031;-81
2022/02/26 03:35:34;;;;;;;7.32;3.90;;;;;;;;;;4958066;28;20031;-82
2022/02/26 03:38:00;;;;;;;9.90;4.82;;;;;;;;;;4957737;28;20162;-82
2022/02/26 03:40:26;;;;;;;6.63;3.97;;;;;;;;;;4957955;28;20122;-83
2022/02/26 03:42:52;;;;;;;8.75;4.65;;;;;;;;;;4957602;28;20034;-83
2022/02/26 03:45:17;;;;;;;6.75;4.93;;;;;;;;;;4959509;28;20141;-82
2022/02/26 03:47:43;;;;;;;7.95;3.78;;;;;;;;;;4971239;28;20416;-82
2022/02/26 03:50:08;;;;;;;6.90;3.45;;;;;;;;;;4973771;28;20121;-82
2022/02/26 03:52:34;;;;;;;5.80;3.53;;;;;;;;;;4989944;28;20035;-82
2022/02/26 03:55:02;;;;;;;10.18;3.97;;;;;;;;;;4973939;28;20073;-82
2022/02/26 03:57:29;;;;;;;7.68;4.53;;;;;;;;;;4957497;28;20038;-82
2022/02/26 03:59:55;;;;;;;9.35;4.13;;;;;;;;;;4957488;28;20035;-82
2022/02/26 04:02:20;;;;;;;6.78;3.58;;;;;;;;;;4946390;28;20031;-82
2022/02/26 04:04:45;;;;;;;8.93;3.97;;;;;;;;;;4973337;28;20054;-82
2022/02/26 04:07:11;;;;;;;7.15;3.85;;;;;;;;;;4973481;28;20042;-82
2022/02/26 04:09:36;;;;;;;7.72;4.10;;;;;;;;;;4973704;28;20062;-82
2022/02/26 04:12:02;;;;;;;7.05;3.22;;;;;;;;;;4957355;28;20034;-82
2022/02/26 04:14:27;;;;;;;7.57;3.63;;;;;;;;;;4956599;28;20488;-82
2022/02/26 04:16:53;;;;;;;8.15;3.60;;;;;;;;;;4981116;28;20047;-82
2022/02/26 04:19:18;;;;;;;7.32;3.50;;;;;;;;;;4991365;28;20105;-82
2022/02/26 04:21:44;;;;;;;7.05;4.05;;;;;;;;;;4976478;28;20038;-82
2022/02/26 04:24:09;;;;;;;5.53;3.25;;;;;;;;;;4959981;28;20061;-82
2022/02/26 04:26:35;;;;;;;6.18;2.90;;;;;;;;;;4944604;28;20411;-82
2022/02/26 04:29:00;;;;;;;8.48;3.53;;;;;;;;;;4959521;28;20049;-82
2022/02/26 04:31:26;;;;;;;6.57;3.38;;;;;;;;;;4976379;28;20189;-82
2022/02/26 04:33:51;;;;;;;5.85;3.42;;;;;;;;;;4972322;28;20034;-82
2022/02/26 04:36:17;;;;;;;6.82;3.88;;;;;;;;;;4956962;28;20101;-82
2022/02/26 04:38:43;;;;;;;7.07;3.47;;;;;;;;;;4941101;28;20130;-82
2022/02/26 04:41:08;;;;;;;5.35;3.83;;;;;;;;;;4956817;28;20061;-82
2022/02/26 04:43:38;;;;;;;6.47;3.40;;;;;;;;;;4959112;28;20061;-82
2022/02/26 04:46:03;;;;;;;5.90;3.17;;;;;;;;;;4959809;28;20070;-82
2022/02/26 04:48:29;;;;;;;7.43;3.65;;;;;;;;;;4972431;28;20088;-82
2022/02/26 04:50:55;;;;;;;5.97;3.38;;;;;;;;;;4973035;28;20118;-82
2022/02/26 04:53:21;;;;;;;5.70;3.58;;;;;;;;;;4972529;28;20038;-82
2022/02/26 04:55:46;;;;;;;6.70;3.45;;;;;;;;;;4956299;28;20041;-82
2022/02/26 04:58:12;;;;;;;4.80;3.47;;;;;;;;;;4990618;28;20078;-82
2022/02/26 05:00:37;;;;;;;6.25;3.50;;;;;;;;;;4975368;28;20048;-82
2022/02/26 05:03:03;;;;;;;8.43;3.58;;;;;;;;;;4956215;28;20461;-82
2022/02/26 05:05:28;;;;;;;7.82;3.97;;;;;;;;;;4988305;28;20038;-82
2022/02/26 05:07:54;;;;;;;9.35;4.32;;;;;;;;;;4988271;28;20030;-82
2022/02/26 05:10:19;;;;;;;5.25;3.17;;;;;;;;;;4988369;28;20088;-82
2022/02/26 05:12:46;;;;;;;7.05;3.08;;;;;;;;;;4980529;28;20043;-82
2022/02/26 05:15:11;;;;;;;7.32;3.65;;;;;;;;;;4988581;28;20057;-81
2022/02/26 05:17:38;;;;;;;8.27;4.03;;;;;;;;;;4969344;28;20050;-82
2022/02/26 05:20:04;;;;;;;8.10;3.53;;;;;;;;;;4940391;28;20043;-82
2022/02/26 05:22:29;;;;;;;7.13;3.38;;;;;;;;;;4972141;28;20102;-82
2022/02/26 05:24:55;;;;;;;7.43;3.45;;;;;;;;;;4972596;28;20173;-82
2022/02/26 05:27:20;;;;;;;7.57;3.40;;;;;;;;;;4989442;28;20054;-82
2022/02/26 05:29:46;;;;;;;5.35;3.38;;;;;;;;;;4991462;28;20484;-82
2022/02/26 05:32:11;;;;;;;6.93;3.13;;;;;;;;;;4975387;28;20038;-82
2022/02/26 05:34:37;;;;;;;6.18;3.15;;;;;;;;;;4971100;28;20058;-82
2022/02/26 05:37:02;;;;;;;6.07;3.28;;;;;;;;;;4972062;28;20039;-81
2022/02/26 05:39:28;;;;;;;9.57;3.45;;;;;;;;;;4955887;28;20034;-82
2022/02/26 05:41:54;;;;;;;6.60;3.45;;;;;;;;;;4970841;28;20092;-81
2022/02/26 05:44:19;;;;;;;6.22;3.65;;;;;;;;;;4980963;28;20034;-82
2022/02/26 05:46:45;;;;;;;8.02;4.18;;;;;;;;;;4972009;28;20401;-82
2022/02/26 05:49:10;;;;;;;5.82;3.72;;;;;;;;;;4971497;28;20575;-82
2022/02/26 05:51:36;;;;;;;8.80;3.80;;;;;;;;;;4987945;28;20062;-81
2022/02/26 05:54:01;;;;;;;7.32;3.63;;;;;;;;;;4987933;28;20043;-82
2022/02/26 05:56:27;;;;;;;7.57;3.80;;;;;;;;;;4990096;28;20069;-82
2022/02/26 05:58:52;;;;;;;7.05;3.85;;;;;;;;;;4983409;28;20046;-81
2022/02/26 06:01:18;;;;;;;7.93;4.78;;;;;;;;;;4971938;28;20524;-82
2022/02/26 06:03:43;;;;;;;7.88;3.78;;;;;;;;;;4971121;28;20129;-81
2022/02/26 06:06:09;;;;;;;7.05;3.75;;;;;;;;;;4952863;28;20069;-81
2022/02/26 06:08:34;;;;;;;7.03;3.92;;;;;;;;;;4953339;28;20062;-81
2022/02/26 06:11:00;;;;;;;7.18;3.13;;;;;;;;;;4969313;28;20043;-81
2022/02/26 06:13:25;;;;;;;7.22;3.65;;;;;;;;;;4974125;28;20042;-81
2022/02/26 06:15:51;;;;;;;9.20;4.05;;;;;;;;;;4974124;28;20141;-82
2022/02/26 06:18:16;;;;;;;8.20;4.72;;;;;;;;;;4990825;28;20509;-81
2022/02/26 06:20:42;;;;;;;6.50;3.78;;;;;;;;;;4975228;28;20034;-81
2022/02/26 06:23:07;;;;;;;6.38;3.90;;;;;;;;;;4990986;28;20034;-81
2022/02/26 06:25:33;;;;;;;6.82;4.18;;;;;;;;;;4975219;28;20065;-82
2022/02/26 06:27:58;;;;;;;7.75;4.00;;;;;;;;;;4971515;28;20042;-80
2022/02/26 06:30:26;;;;;;;6.38;4.00;;;;;;;;;;4970878;28;20166;-82
2022/02/26 06:32:52;;;;;;;7.35;3.67;;;;;;;;;;4971380;28;20042;-82
2022/02/26 06:35:17;;;;;;;8.65;4.38;;;;;;;;;;4971327;28;20031;-82
2022/02/26 06:37:43;;;;;;;7.13;4.53;;;;;;;;;;4955170;28;20046;-82
2022/02/26 06:40:09;;;;;;;6.65;4.38;;;;;;;;;;4985526;28;20109;-81
2022/02/26 06:42:34;;;;;;;6.93;3.90;;;;;;;;;;4985653;28;20092;-82
2022/02/26 06:45:00;;;;;;;7.65;3.90;;;;;;;;;;4955073;28;20038;-82
2022/02/26 06:47:25;;;;;;;7.60;4.10;;;;;;;;;;4983678;28;20035;-81
2022/02/26 06:49:51;;;;;;;6.72;3.90;;;;;;;;;;4971260;28;20039;-81
2022/02/26 06:52:17;;;;;;;7.95;4.70;;;;;;;;;;4956751;28;20046;-81
2022/02/26 06:54:42;;;;;;;12.15;4.47;;;;;;;;;;4969144;28;20097;-80
2022/02/26 06:57:08;;;;;;;7.40;4.30;;;;;;;;;;4963246;28;21502;-82
2022/02/26 06:59:33;;;;;;;10.57;5.07;;;;;;;;;;4952824;28;20038;-81
2022/02/26 07:01:59;;;;;;;12.50;6.07;;;;;;;;;;4966406;28;20462;-81
2022/02/26 07:04:24;;;;;;;10.27;5.35;;;;;;;;;;4982574;28;20119;-81
2022/02/26 07:06:50;;;;;;;11.52;5.63;;;;;;;;;;4973204;28;20038;-81
2022/02/26 07:09:17;;;;;;;15.88;5.43;;;;;;;;;;4960704;28;20053;-81
2022/02/26 07:11:43;;;;;;;11.15;5.10;;;;;;;;;;4979625;28;20064;-81
2022/02/26 07:14:09;;;;;;;12.25;5.40;;;;;;;;;;4957695;28;20031;-80
2022/02/26 07:16:34;;;;;;;15.45;5.70;;;;;;;;;;4965992;28;20053;-80
2022/02/26 07:19:00;;;;;;;12.35;6.20;;;;;;;;;;4992682;28;20401;-80
2022/02/26 07:21:26;;;;;;;10.57;5.30;;;;;;;;;;4970879;28;20039;-80
2022/02/26 07:23:53;;;;;;;16.98;6.32;;;;;;;;;;4959882;28;20038;-79
2022/02/26 07:26:19;;;;;;;13.70;5.13;;;;;;;;;;4960955;28;20035;-79
2022/02/26 07:28:44;;;;;;;11.68;5.25;;;;;;;;;;4974397;28;20045;-79
2022/02/26 07:31:10;;;;;;;12.73;5.88;;;;;;;;;;4989493;28;20531;-79
2022/02/26 07:33:36;;;;;;;14.85;6.03;;;;;;;;;;4992785;28;20038;-79
2022/02/26 07:36:02;;;;;;;14.05;6.28;;;;;;;;;;4992869;28;20045;-79
2022/02/26 07:38:27;;;;;;;12.63;6.32;;;;;;;;;;4943317;28;20038;-79
2022/02/26 07:40:53;;;;;;;17.65;6.32;;;;;;;;;;4976117;28;20077;-80
2022/02/26 07:43:18;;;;;;;14.60;5.78;;;;;;;;;;4995462;28;20046;-80
2022/02/26 07:45:44;;;;;;;13.02;5.05;;;;;;;;;;4990238;28;20046;-79
2022/02/26 07:48:09;;;;;;;14.38;5.93;;;;;;;;;;4989248;28;20045;-80
2022/02/26 07:50:35;;;;;;;14.05;5.55;;;;;;;;;;4958387;28;20041;-80
2022/02/26 07:53:01;;;;;;;23.02;13.02;;;;;;;;;;4955878;28;20060;-80
2022/02/26 07:55:26;;;;;;;17.10;8.27;;;;;;;;;;4980259;28;20042;-80
2022/02/26 07:57:52;;;;;;;20.23;9.32;;;;;;;;;;4990576;28;20042;-80
2022/02/26 08:00:17;;;;;;;18.98;8.55;;;;;;;;;;4985552;28;20109;-80
2022/02/26 08:02:44;;;;;;;18.92;8.63;;;;;;;;;;4970674;28;20125;-80
2022/02/26 08:05:09;;;;;;;16.08;8.80;;;;;;;;;;4987260;28;20042;-80
2022/02/26 08:07:35;;;;;;;16.70;7.88;;;;;;;;;;4957339;28;20086;-80
2022/02/26 08:10:00;;;;;;;17.77;8.00;;;;;;;;;;4957315;28;20046;-80
2022/02/26 08:12:26;;;;;;;17.30;9.20;;;;;;;;;;4972711;28;20045;-79
2022/02/26 08:14:52;;;;;;;14.85;8.48;;;;;;;;;;4972879;28;20042;-80
2022/02/26 08:17:17;;;;;;;17.30;8.98;;;;;;;;;;4957249;28;20047;-80
2022/02/26 08:19:43;;;;;;;20.42;9.00;;;;;;;;;;4973087;28;20484;-79
2022/02/26 08:22:08;;;;;;;16.15;8.93;;;;;;;;;;4940610;28;20174;-80
2022/02/26 08:24:35;;;;;;;18.45;9.68;;;;;;;;;;4956779;28;20042;-80
2022/02/26 08:27:01;;;;;;;15.43;8.10;;;;;;;;;;4957453;28;20124;-80
2022/02/26 08:29:26;;;;;;;14.98;7.90;;;;;;;;;;4973379;28;20513;-80
2022/02/26 08:31:52;;;;;;;15.98;8.32;;;;;;;;;;4956684;28;20031;-80
2022/02/26 08:34:17;;;;;;;15.45;8.13;;;;;;;;;;4972919;28;20425;-80
2022/02/26 08:36:44;;;;;;;16.85;7.85;;;;;;;;;;4973044;28;20484;-80
2022/02/26 08:39:09;;;;;;;15.27;7.22;;;;;;;;;;4992689;28;20104;-80
2022/02/26 08:41:35;;;;;;;15.40;7.90;;;;;;;;;;4976423;28;20042;-80
2022/02/26 08:44:00;;;;;;;15.85;8.25;;;;;;;;;;4971891;28;20053;-80
2022/02/26 08:46:26;;;;;;;14.90;7.40;;;;;;;;;;4948917;28;20046;-81
2022/02/26 08:48:52;;;;;;;17.05;8.55;;;;;;;;;;4972998;28;20047;-80
2022/02/26 08:51:18;;;;;;;18.35;7.70;;;;;;;;;;4960052;28;20117;-80
2022/02/26 08:53:43;;;;;;;16.85;7.60;;;;;;;;;;4940707;28;20074;-80
2022/02/26 08:56:08;;;;;;;21.00;7.95;;;;;;;;;;4940875;28;20112;-80
2022/02/26 08:58:34;;;;;;;15.82;7.63;;;;;;;;;;4942092;28;20089;-80
2022/02/26 09:01:01;;;;;;;16.52;7.88;;;;;;;;;;4961877;28;20022;-81
2022/02/26 09:03:29;;;;;;;15.60;7.38;;;;;;;;;;4962722;28;20062;-82
2022/02/26 09:05:54;;;;;;;14.48;8.63;;;;;;;;;;4964573;28;20105;-81
2022/02/26 09:08:20;;;;;;;16.58;8.18;;;;;;;;;;4967053;28;20067;-81
2022/02/26 09:10:45;;;;;;;18.00;8.30;;;;;;;;;;4975849;28;20031;-81
2022/02/26 09:13:11;;;;;;;12.30;6.72;;;;;;;;;;4959391;28;20039;-80
2022/02/26 09:15:36;;;;;;;14.75;6.30;;;;;;;;;;4956325;28;20460;-80
2022/02/26 09:18:02;;;;;;;11.60;6.70;;;;;;;;;;4973365;28;20409;-81
2022/02/26 09:20:27;;;;;;;14.65;6.97;;;;;;;;;;4974414;28;20038;-81
2022/02/26 09:22:53;;;;;;;17.67;6.55;;;;;;;;;;4965562;28;20101;-80
2022/02/26 09:25:18;;;;;;;13.77;6.28;;;;;;;;;;4976780;28;20120;-80
2022/02/26 09:27:44;;;;;;;11.43;6.18;;;;;;;;;;4976069;28;20042;-80
2022/02/26 09:30:10;;;;;;;10.70;6.40;;;;;;;;;;4958565;28;20122;-80
2022/02/26 09:32:36;;;;;;;17.15;6.40;;;;;;;;;;4971679;28;20146;-81
2022/02/26 09:35:01;;;;;;;12.68;5.43;;;;;;;;;;4939087;28;20038;-81
2022/02/26 09:37:27;;;;;;;16.42;6.85;;;;;;;;;;4939338;28;20053;-81
2022/02/26 09:39:54;;;;;;;12.60;5.65;;;;;;;;;;4940100;28;20030;-80
2022/02/26 09:42:22;;;;;;;13.57;5.65;;;;;;;;;;4971919;28;20408;-81
2022/02/26 09:44:48;;;;;;;11.50;4.82;;;;;;;;;;4990163;28;20040;-82
2022/02/26 09:47:14;;;;;;;14.05;5.38;;;;;;;;;;4987558;28;20046;-81
2022/02/26 09:49:39;;;;;;;15.20;5.90;;;;;;;;;;4971702;28;20527;-82
2022/02/26 09:52:07;;;;;;;12.82;4.90;;;;;;;;;;4982173;28;20046;-81
2022/02/26 09:54:33;;;;;;;10.40;5.03;;;;;;;;;;4974869;28;20125;-81
2022/02/26 09:56:58;;;;;;;11.85;4.68;;;;;;;;;;4974833;28;20046;-81
2022/02/26 09:59:25;;;;;;;11.02;4.82;;;;;;;;;;4955860;28;20050;-81
2022/02/26 10:02:07;;;;;;;11.48;5.47;;;;;;;;;;4943956;28;20043;-81
2022/02/26 10:04:34;;;;;;;7.45;4.20;;;;;;;;;;4939191;28;20038;-81
2022/02/26 10:07:27;;;;;;;8.45;4.32;;;;;;;;;;4971379;28;20031;-81
2022/02/26 10:09:53;;;;;;;9.48;3.78;;;;;;;;;;4955321;28;20393;-81
2022/02/26 10:12:27;;;;;;;10.70;4.30;;;;;;;;;;4948956;28;20049;-81
2022/02/26 10:14:54;;;;;;;10.65;3.58;;;;;;;;;;4990658;28;20448;-81
2022/02/26 10:17:36;;;;;;;11.07;3.97;;;;;;;;;;4974937;28;20066;-81
2022/02/26 10:20:14;;;;;;;6.22;3.95;;;;;;;;;;4991164;28;20045;-81
2022/02/26 10:22:44;;;;;;;7.55;3.80;;;;;;;;;;4974926;28;20528;-81
2022/02/26 10:25:11;;;;;;;10.25;4.10;;;;;;;;;;4974679;28;20026;-80
2022/02/26 10:27:42;;;;;;;7.45;3.47;;;;;;;;;;4973266;28;20039;-81
2022/02/26 10:30:08;;;;;;;6.43;3.53;;;;;;;;;;4959452;28;20042;-80
2022/02/26 10:32:33;;;;;;;7.28;3.72;;;;;;;;;;4976721;28;20046;-81
2022/02/26 10:34:59;;;;;;;11.77;4.82;;;;;;;;;;4978704;28;20041;-81
2022/02/26 10:37:24;;;;;;;8.50;3.58;;;;;;;;;;4994529;28;20042;-81
2022/02/26 10:39:55;;;;;;;5.72;3.15;;;;;;;;;;4978617;28;20050;-80
2022/02/26 10:42:28;;;;;;;6.53;3.50;;;;;;;;;;4994164;28;20038;-81
2022/02/26 10:45:06;;;;;;;6.10;2.70;;;;;;;;;;4958697;28;20086;-81
2022/02/26 10:47:32;;;;;;;7.25;3.38;;;;;;;;;;4989898;28;20468;-81
2022/02/26 10:49:58;;;;;;;6.60;3.53;;;;;;;;;;4978593;28;20042;-81
2022/02/26 10:52:28;;;;;;;6.80;3.25;;;;;;;;;;4994496;28;20466;-81
2022/02/26 10:54:56;;;;;;;7.35;3.33;;;;;;;;;;4968966;28;20133;-81
2022/02/26 10:57:26;;;;;;;6.63;3.13;;;;;;;;;;4958651;28;20045;-81
2022/02/26 10:59:52;;;;;;;7.28;2.78;;;;;;;;;;4954754;28;20105;-81
2022/02/26 11:02:25;;;;;;;7.05;2.72;;;;;;;;;;4990859;28;20045;-81
2022/02/26 11:04:54;;;;;;;5.68;3.10;;;;;;;;;;4959138;28;20039;-80
2022/02/26 11:07:20;;;;;;;5.13;2.35;;;;;;;;;;4958670;28;20034;-81
2022/02/26 11:09:47;;;;;;;5.82;3.20;;;;;;;;;;4952162;28;20035;-81
2022/02/26 11:12:16;;;;;;;5.60;2.67;;;;;;;;;;4958472;28;20030;-82
2022/02/26 11:14:46;;;;;;;5.30;2.10;;;;;;;;;;4958076;28;20041;-81
2022/02/26 11:17:13;;;;;;;5.47;2.53;;;;;;;;;;4958611;28;20462;-81
2022/02/26 11:19:38;;;;;;;5.72;2.28;;;;;;;;;;4958611;28;20054;-81
2022/02/26 11:22:03;;;;;;;4.88;2.25;;;;;;;;;;4958556;28;20043;-81
2022/02/26 11:24:29;;;;;;;4.93;2.17;;;;;;;;;;4978409;28;20042;-81
2022/02/26 11:26:56;;;;;;;5.88;2.28;;;;;;;;;;4993696;28;20034;-81
2022/02/26 11:29:23;;;;;;;6.22;2.20;;;;;;;;;;4961405;28;20037;-81
2022/02/26 11:32:05;;;;;;;6.20;2.10;;;;;;;;;;4977823;28;20038;-81
2022/02/26 11:34:31;;;;;;;;;;;;;;;;;;4993846;28;20558;-81
2022/02/26 11:37:04;;;;;;;4.22;1.90;;;;;;;;;;4977386;28;19913;-80
2022/02/26 11:39:34;;;;;;;5.22;1.95;;;;;;;;;;4957689;28;20079;-81
2022/02/26 11:42:18;;;;;;;6.13;2.30;;;;;;;;;;4972648;28;20118;-81
2022/02/26 11:44:51;;;;;;;6.20;2.00;;;;;;;;;;4968985;28;20042;-81
2022/02/26 11:47:18;;;;;;;6.90;2.40;;;;;;;;;;4993632;28;20043;-81
2022/02/26 11:50:06;;;;;;;6.45;2.45;;;;;;;;;;4961100;28;20022;-80
2022/02/26 11:52:58;;;;;;;7.10;2.00;;;;;;;;;;4976788;28;20489;-81
2022/02/26 11:55:26;;;;;;;5.63;1.85;;;;;;;;;;4976859;28;20535;-81
2022/02/26 11:57:57;;;;;;;4.43;1.92;;;;;;;;;;4960583;28;20038;-81
2022/02/26 12:00:23;;;;;;;5.47;3.15;;;;;;;;;;4998861;28;20126;-80
2022/02/26 12:03:17;;;;;;;5.25;2.00;;;;;;;;;;4944340;28;20045;-80
2022/02/26 12:05:43;;;;;;;7.32;2.00;;;;;;;;;;4976717;28;20026;-80
2022/02/26 12:08:08;;;;;;;3.55;1.65;;;;;;;;;;4976972;28;20555;-80
2022/02/26 12:10:34;;;;;;;5.50;1.90;;;;;;;;;;5009404;28;20116;-81
2022/02/26 12:12:59;;;;;;;6.25;1.70;;;;;;;;;;4960162;28;20070;-81
2022/02/26 12:15:29;;;;;;;4.10;2.10;;;;;;;;;;5008000;28;20038;-81
2022/02/26 12:17:54;;;;;;;7.65;2.20;;;;;;;;;;4992368;28;20521;-81
2022/02/26 12:20:21;;;;;;;5.55;1.60;;;;;;;;;;4992674;28;20057;-81
2022/02/26 12:22:47;;;;;;;5.25;1.48;;;;;;;;;;4976599;28;20042;-81
2022/02/26 12:25:14;;;;;;;6.18;2.00;;;;;;;;;;4976638;28;20034;-80
2022/02/26 12:27:39;;;;;;;4.90;2.22;;;;;;;;;;4992173;28;20112;-81
2022/02/26 12:30:14;;;;;;;7.25;1.95;;;;;;;;;;4974452;28;20034;-79
2022/02/26 12:32:52;;;;;;;9.85;1.92;;;;;;;;;;4986388;28;20046;-79
2022/02/26 12:35:17;;;;;;;5.95;1.80;;;;;;;;;;4975825;28;20062;-78
2022/02/26 12:37:44;;;;;;;6.15;1.77;;;;;;;;;;4974548;28;20049;-78
2022/02/26 12:40:28;;;;;;;6.28;1.67;;;;;;;;;;4976565;28;20489;-80
2022/02/26 12:43:00;;;;;;;4.72;1.50;;;;;;;;;;4991168;28;20065;-80
2022/02/26 12:45:26;;;;;;;6.25;1.95;;;;;;;;;;4971745;28;20035;-80
2022/02/26 12:47:51;;;;;;;5.45;1.70;;;;;;;;;;4924770;28;20051;-79
2022/02/26 12:50:17;;;;;;;5.60;1.67;;;;;;;;;;4940350;28;20047;-80
2022/02/26 12:52:43;;;;;;;7.07;1.60;;;;;;;;;;4956741;28;20034;-79
2022/02/26 12:55:10;;;;;;;6.88;2.03;;;;;;;;;;4940341;28;20042;-79
2022/02/26 12:57:39;;;;;;;5.88;1.63;;;;;;;;;;4940941;28;20050;-80
2022/02/26 13:00:07;;;;;;;4.03;1.75;;;;;;;;;;4954952;28;20039;-79
2022/02/26 13:02:39;;;;;;;4.10;1.15;;;;;;;;;;4991883;28;20030;-80
2022/02/26 13:05:05;;;;;;;5.10;1.40;;;;;;;;;;4975858;28;20033;-80
2022/02/26 13:07:31;;;;;;;6.03;1.33;;;;;;;;;;4975670;28;20042;-80
2022/02/26 13:09:57;;;;;;;4.20;1.23;;;;;;;;;;4959965;28;20109;-79
2022/02/26 13:12:27;;;;;;;5.60;1.52;;;;;;;;;;4968342;28;20490;-79
2022/02/26 13:15:01;;;;;;;5.43;1.77;;;;;;;;;;4959551;28;20089;-79
2022/02/26 13:17:28;;;;;;;5.20;2.05;;;;;;;;;;4972945;28;20083;-79
2022/02/26 13:19:54;;;;;;;6.18;1.45;;;;;;;;;;4961103;28;20520;-79
2022/02/26 13:22:19;;;;;;;7.07;1.80;;;;;;;;;;4987414;28;20046;-79
2022/02/26 13:24:45;;;;;;;4.80;1.40;;;;;;;;;;4959168;28;20038;-79
2022/02/26 13:27:14;;;;;;;3.63;1.17;;;;;;;;;;4988886;28;20031;-79
2022/02/26 13:29:41;;;;;;;4.68;1.38;;;;;;;;;;4971061;28;20528;-80
2022/02/26 13:32:29;;;;;;;5.18;1.58;;;;;;;;;;4971601;28;20043;-79
2022/02/26 13:34:55;;;;;;;11.57;7.07;;;;;;;;;;4955858;28;20624;-80
2022/02/26 13:37:24;;;;;;;21.83;13.30;;;;;;;;;;4960819;28;20496;-79
2022/02/26 13:39:50;;;;;;;34.38;24.33;;;;;;;;;;4954292;28;20613;-79
2022/02/26 13:42:35;;;;;;;39.45;26.70;;;;;;;;;;4990211;28;20034;-79
2022/02/26 13:45:07;;;;;;;46.25;30.08;;;;;;;;;;4954636;28;20413;-80
2022/02/26 13:47:33;;;;;;;;;;;;;;;;;;4982363;28;20035;-79
2022/02/26 13:49:58;;;;;;;48.80;32.63;;;;;;;;;;4989024;28;19929;-79
2022/02/26 13:52:24;;;;;;;50.30;34.22;;;;;;;;;;4972482;28;20160;-79
2022/02/26 13:54:51;;;;;;;44.45;31.23;;;;;;;;;;4958717;28;20038;-80
2022/02/26 13:57:18;;;;;;;46.95;32.80;;;;;;;;;;4966592;28;20073;-79
2022/02/26 13:59:46;;;;;;;45.60;31.23;;;;;;;;;;4974543;28;20042;-79
2022/02/26 14:02:22;;;;;;;44.22;29.98;;;;;;;;;;4966016;28;20066;-80
2022/02/26 14:04:53;;;;;;;44.40;29.13;;;;;;;;;;4971882;28;20417;-80
2022/02/26 14:07:19;;;;;;;42.45;29.20;;;;;;;;;;4980511;28;20037;-80
2022/02/26 14:09:44;;;;;;;40.35;27.27;;;;;;;;;;4971348;28;20039;-80
2022/02/26 14:12:11;;;;;;;42.95;29.48;;;;;;;;;;4971319;28;20425;-79
2022/02/26 14:14:37;;;;;;;41.15;27.00;;;;;;;;;;4960491;28;20409;-79
2022/02/26 14:17:14;;;;;;;38.25;27.25;;;;;;;;;;4956991;28;20086;-79
2022/02/26 14:19:41;;;;;;;40.42;27.08;;;;;;;;;;4975480;28;20073;-79
2022/02/26 14:22:08;;;;;;;37.03;25.52;;;;;;;;;;4988718;28;20045;-80
2022/02/26 14:24:38;;;;;;;34.45;22.65;;;;;;;;;;4955560;28;20039;-80
2022/02/26 14:27:03;;;;;;;37.95;23.45;;;;;;;;;;4962537;28;20042;-79
2022/02/26 14:29:31;;;;;;;32.55;22.60;;;;;;;;;;4963474;28;20112;-79
2022/02/26 14:32:06;;;;;;;33.78;23.65;;;;;;;;;;4971354;28;20086;-79
2022/02/26 14:34:35;;;;;;;34.58;22.67;;;;;;;;;;4948748;28;20046;-79
2022/02/26 14:37:01;;;;;;;33.25;22.33;;;;;;;;;;4988221;28;20034;-79